sensor_id;sensor_type;location;lat;lon;timestamp;pressure;altitude;pressure_sealevel;temperature;humidity
47761;BME280;33524;55.434;38.520;2023-02-14T00:01:50;99000.69;;;-1.21;100.00
47761;BME280;33524;55.434;38.520;2023-02-14T00:04:22;99002.28;;;-1.18;100.00
47761;BME280;33524;55.434;38.520;2023-02-14T00:06:50;99000.69;;;-1.21;100.00
47761;BME280;33524;55.434;38.520;2023-02-14T00:09:18;98995.00;;;-1.28;100.00
47761;BME280;33524;55.434;38.520;2023-02-14T00:11:47;98974.44;;;-1.48;100.00
47761;BME280;33524;55.434;38.520;2023-02-14T00:14:16;99001.59;;;-1.41;100.00
47761;BME280;33524;55.434;38.520;2023-02-14T00:17:06;99006.97;;;-1.46;100.00
47761;BME280;33524;55.434;38.520;2023-02-14T00:19:34;99010.75;;;-1.53;100.00
47761;BME280;33524;55.434;38.520;2023-02-14T00:22:03;99018.75;;;-1.59;100.00
47761;BME280;33524;55.434;38.520;2023-02-14T00:24:31;99013.88;;;-1.65;100.00
47761;BME280;33524;55.434;38.520;2023-02-14T00:26:59;99000.84;;;-1.62;100.00
47761;BME280;33524;55.434;38.520;2023-02-14T00:29:30;99023.00;;;-1.58;100.00
47761;BME280;33524;55.434;38.520;2023-02-14T00:32:03;99019.66;;;-1.60;100.00
47761;BME280;33524;55.434;38.520;2023-02-14T00:34:31;99023.00;;;-1.58;100.00
47761;BME280;33524;55.434;38.520;2023-02-14T00:37:01;99032.69;;;-1.63;100.00
47761;BME280;33524;55.434;38.520;2023-02-14T00:39:29;99036.81;;;-1.59;100.00
47761;BME280;33524;55.434;38.520;2023-02-14T00:41:56;99035.13;;;-1.60;100.00
47761;BME280;33524;55.434;38.520;2023-02-14T00:44:25;99039.94;;;-1.52;100.00
47761;BME280;33524;55.434;38.520;2023-02-14T00:46:56;99034.03;;;-1.54;100.00
47761;BME280;33524;55.434;38.520;2023-02-14T00:49:24;99038.91;;;-1.48;100.00
47761;BME280;33524;55.434;38.520;2023-02-14T00:51:52;99042.47;;;-1.51;100.00
47761;BME280;33524;55.434;38.520;2023-02-14T00:54:21;99038.19;;;-1.52;100.00
47761;BME280;33524;55.434;38.520;2023-02-14T00:56:50;99038.53;;;-1.59;100.00
47761;BME280;33524;55.434;38.520;2023-02-14T00:59:17;99043.78;;;-1.61;100.00
47761;BME280;33524;55.434;38.520;2023-02-14T01:01:49;99040.53;;;-1.66;100.00
47761;BME280;33524;55.434;38.520;2023-02-14T01:04:17;99037.03;;;-1.84;100.00
47761;BME280;33524;55.434;38.520;2023-02-14T01:06:45;99040.91;;;-1.94;100.00
47761;BME280;33524;55.434;38.520;2023-02-14T01:09:13;99041.50;;;-1.88;100.00
47761;BME280;33524;55.434;38.520;2023-02-14T01:11:41;99034.03;;;-1.94;100.00
47761;BME280;33524;55.434;38.520;2023-02-14T01:14:09;99045.94;;;-1.91;100.00
47761;BME280;33524;55.434;38.520;2023-02-14T01:16:37;99040.47;;;-1.84;100.00
47761;BME280;33524;55.434;38.520;2023-02-14T01:19:05;99043.97;;;-1.86;100.00
47761;BME280;33524;55.434;38.520;2023-02-14T01:21:35;99047.59;;;-1.90;100.00
47761;BME280;33524;55.434;38.520;2023-02-14T01:24:05;99044.53;;;-1.98;100.00
47761;BME280;33524;55.434;38.520;2023-02-14T01:26:34;99053.31;;;-2.03;100.00
47761;BME280;33524;55.434;38.520;2023-02-14T01:29:03;99058.63;;;-2.07;100.00
47761;BME280;33524;55.434;38.520;2023-02-14T01:31:33;99060.25;;;-2.05;100.00
47761;BME280;33524;55.434;38.520;2023-02-14T01:34:02;99067.06;;;-2.04;100.00
47761;BME280;33524;55.434;38.520;2023-02-14T01:36:36;99064.44;;;-2.02;100.00
47761;BME280;33524;55.434;38.520;2023-02-14T01:39:09;99067.72;;;-1.98;100.00
47761;BME280;33524;55.434;38.520;2023-02-14T01:41:38;99077.13;;;-1.97;100.00
47761;BME280;33524;55.434;38.520;2023-02-14T01:46:45;99080.63;;;-1.98;100.00
47761;BME280;33524;55.434;38.520;2023-02-14T01:49:18;99066.34;;;-2.07;100.00
47761;BME280;33524;55.434;38.520;2023-02-14T01:54:32;99072.22;;;-2.04;100.00
47761;BME280;33524;55.434;38.520;2023-02-14T01:57:04;99079.91;;;-2.02;100.00
47761;BME280;33524;55.434;38.520;2023-02-14T01:59:40;99075.00;;;-2.08;100.00
47761;BME280;33524;55.434;38.520;2023-02-14T02:02:10;99081.56;;;-2.01;100.00
47761;BME280;33524;55.434;38.520;2023-02-14T02:04:41;99080.00;;;-2.05;100.00
47761;BME280;33524;55.434;38.520;2023-02-14T02:07:18;99076.81;;;-2.10;100.00
47761;BME280;33524;55.434;38.520;2023-02-14T02:09:59;99058.09;;;-2.15;100.00
47761;BME280;33524;55.434;38.520;2023-02-14T02:12:33;99083.25;;;-2.00;100.00
47761;BME280;33524;55.434;38.520;2023-02-14T02:15:03;99081.94;;;-2.10;100.00
47761;BME280;33524;55.434;38.520;2023-02-14T02:17:49;99066.88;;;-2.19;100.00
47761;BME280;33524;55.434;38.520;2023-02-14T02:23:27;99085.56;;;-2.14;100.00
47761;BME280;33524;55.434;38.520;2023-02-14T02:36:55;99086.03;;;-2.05;100.00
47761;BME280;33524;55.434;38.520;2023-02-14T02:39:51;99085.94;;;-2.03;100.00
47761;BME280;33524;55.434;38.520;2023-02-14T02:43:06;99082.06;;;-2.13;100.00
47761;BME280;33524;55.434;38.520;2023-02-14T02:46:01;99089.22;;;-2.20;100.00
47761;BME280;33524;55.434;38.520;2023-02-14T02:58:19;99093.37;;;-2.38;100.00
47761;BME280;33524;55.434;38.520;2023-02-14T03:00:50;99083.97;;;-2.39;100.00
47761;BME280;33524;55.434;38.520;2023-02-14T03:03:23;99079.19;;;-2.48;100.00
47761;BME280;33524;55.434;38.520;2023-02-14T03:06:11;99084.47;;;-2.51;100.00
47761;BME280;33524;55.434;38.520;2023-02-14T03:08:40;99089.72;;;-2.54;100.00
47761;BME280;33524;55.434;38.520;2023-02-14T03:11:11;99089.47;;;-2.48;100.00
47761;BME280;33524;55.434;38.520;2023-02-14T03:14:48;99092.31;;;-2.54;100.00
47761;BME280;33524;55.434;38.520;2023-02-14T03:16:58;99094.22;;;-2.59;100.00
47761;BME280;33524;55.434;38.520;2023-02-14T03:19:36;99094.63;;;-2.69;100.00
47761;BME280;33524;55.434;38.520;2023-02-14T03:22:39;99090.03;;;-2.84;100.00
47761;BME280;33524;55.434;38.520;2023-02-14T03:28:24;99102.53;;;-2.97;100.00
47761;BME280;33524;55.434;38.520;2023-02-14T03:31:25;99107.28;;;-2.86;100.00
47761;BME280;33524;55.434;38.520;2023-02-14T03:36:46;99111.78;;;-2.91;100.00
47761;BME280;33524;55.434;38.520;2023-02-14T03:42:22;99116.91;;;-2.91;100.00
47761;BME280;33524;55.434;38.520;2023-02-14T03:44:54;99109.53;;;-3.00;100.00
47761;BME280;33524;55.434;38.520;2023-02-14T03:47:26;99118.94;;;-2.99;100.00
47761;BME280;33524;55.434;38.520;2023-02-14T03:50:01;99126.94;;;-3.07;100.00
47761;BME280;33524;55.434;38.520;2023-02-14T03:52:32;99120.03;;;-3.07;100.00
47761;BME280;33524;55.434;38.520;2023-02-14T03:55:03;99127.53;;;-3.00;100.00
47761;BME280;33524;55.434;38.520;2023-02-14T03:57:45;99126.88;;;-3.06;100.00
47761;BME280;33524;55.434;38.520;2023-02-14T04:00:17;99093.00;;;-3.17;100.00
47761;BME280;33524;55.434;38.520;2023-02-14T04:02:57;99134.38;;;-2.99;100.00
47761;BME280;33524;55.434;38.520;2023-02-14T04:05:28;99102.50;;;-3.19;100.00
47761;BME280;33524;55.434;38.520;2023-02-14T04:08:00;99136.03;;;-2.98;100.00
47761;BME280;33524;55.434;38.520;2023-02-14T04:10:28;99133.38;;;-2.95;100.00
47761;BME280;33524;55.434;38.520;2023-02-14T04:12:58;99130.44;;;-2.86;100.00
47761;BME280;33524;55.434;38.520;2023-02-14T04:15:27;99138.59;;;-2.75;100.00
47761;BME280;33524;55.434;38.520;2023-02-14T04:17:54;99137.69;;;-2.74;100.00
47761;BME280;33524;55.434;38.520;2023-02-14T04:20:41;99146.00;;;-2.67;100.00
47761;BME280;33524;55.434;38.520;2023-02-14T04:23:09;99147.87;;;-2.71;100.00
47761;BME280;33524;55.434;38.520;2023-02-14T04:25:37;99135.41;;;-2.81;100.00
47761;BME280;33524;55.434;38.520;2023-02-14T04:28:07;99141.88;;;-2.93;100.00
47761;BME280;33524;55.434;38.520;2023-02-14T04:30:35;99141.97;;;-2.96;100.00
47761;BME280;33524;55.434;38.520;2023-02-14T04:33:03;99147.56;;;-3.09;100.00
47761;BME280;33524;55.434;38.520;2023-02-14T04:35:31;99142.75;;;-3.18;100.00
47761;BME280;33524;55.434;38.520;2023-02-14T04:38:00;99145.66;;;-3.27;100.00
47761;BME280;33524;55.434;38.520;2023-02-14T04:40:29;99149.78;;;-3.23;100.00
47761;BME280;33524;55.434;38.520;2023-02-14T04:42:57;99152.31;;;-3.21;100.00
47761;BME280;33524;55.434;38.520;2023-02-14T04:45:25;99153.84;;;-3.16;100.00
47761;BME280;33524;55.434;38.520;2023-02-14T04:47:53;99160.69;;;-3.16;100.00
47761;BME280;33524;55.434;38.520;2023-02-14T04:50:21;99156.97;;;-3.08;100.00
47761;BME280;33524;55.434;38.520;2023-02-14T04:52:52;99124.50;;;-3.35;100.00
47761;BME280;33524;55.434;38.520;2023-02-14T04:55:21;99154.19;;;-3.27;100.00
47761;BME280;33524;55.434;38.520;2023-02-14T04:57:49;99150.78;;;-3.27;100.00
47761;BME280;33524;55.434;38.520;2023-02-14T05:00:17;99154.09;;;-3.23;100.00
47761;BME280;33524;55.434;38.520;2023-02-14T05:02:46;99129.56;;;-3.32;100.00
47761;BME280;33524;55.434;38.520;2023-02-14T05:05:14;99110.31;;;-3.46;100.00
47761;BME280;33524;55.434;38.520;2023-02-14T05:07:42;99157.84;;;-3.09;100.00
47761;BME280;33524;55.434;38.520;2023-02-14T05:10:14;99156.41;;;-3.16;100.00
47761;BME280;33524;55.434;38.520;2023-02-14T05:12:42;99168.19;;;-3.10;100.00
47761;BME280;33524;55.434;38.520;2023-02-14T05:15:10;99169.47;;;-3.22;100.00
47761;BME280;33524;55.434;38.520;2023-02-14T05:17:38;99171.72;;;-3.13;100.00
47761;BME280;33524;55.434;38.520;2023-02-14T05:20:07;99171.53;;;-3.08;100.00
47761;BME280;33524;55.434;38.520;2023-02-14T05:22:35;99177.37;;;-3.03;100.00
47761;BME280;33524;55.434;38.520;2023-02-14T05:25:04;99178.63;;;-3.15;100.00
47761;BME280;33524;55.434;38.520;2023-02-14T05:27:31;99193.63;;;-3.02;100.00
47761;BME280;33524;55.434;38.520;2023-02-14T05:29:59;99186.81;;;-3.03;100.00
47761;BME280;33524;55.434;38.520;2023-02-14T05:32:29;99190.44;;;-2.86;100.00
47761;BME280;33524;55.434;38.520;2023-02-14T05:34:57;99204.59;;;-2.74;100.00
47761;BME280;33524;55.434;38.520;2023-02-14T05:37:29;99206.06;;;-2.67;100.00
47761;BME280;33524;55.434;38.520;2023-02-14T05:39:57;99216.72;;;-2.54;100.00
47761;BME280;33524;55.434;38.520;2023-02-14T05:42:25;99206.78;;;-2.41;100.00
47761;BME280;33524;55.434;38.520;2023-02-14T05:44:53;99215.72;;;-2.28;100.00
47761;BME280;33524;55.434;38.520;2023-02-14T05:47:21;99219.75;;;-2.20;100.00
47761;BME280;33524;55.434;38.520;2023-02-14T05:49:49;99219.75;;;-2.20;100.00
47761;BME280;33524;55.434;38.520;2023-02-14T05:52:17;99212.91;;;-2.21;100.00
47761;BME280;33524;55.434;38.520;2023-02-14T05:54:45;99216.37;;;-2.22;100.00
47761;BME280;33524;55.434;38.520;2023-02-14T05:57:13;99219.25;;;-2.30;100.00
47761;BME280;33524;55.434;38.520;2023-02-14T05:59:41;99218.66;;;-2.37;100.00
47761;BME280;33524;55.434;38.520;2023-02-14T06:02:09;99221.88;;;-2.32;100.00
47761;BME280;33524;55.434;38.520;2023-02-14T06:04:41;99225.13;;;-2.27;100.00
47761;BME280;33524;55.434;38.520;2023-02-14T06:07:15;99231.25;;;-2.29;100.00
47761;BME280;33524;55.434;38.520;2023-02-14T06:09:44;99242.44;;;-2.30;100.00
47761;BME280;33524;55.434;38.520;2023-02-14T06:12:12;99236.84;;;-2.19;100.00
47761;BME280;33524;55.434;38.520;2023-02-14T06:14:40;99231.56;;;-2.15;100.00
47761;BME280;33524;55.434;38.520;2023-02-14T06:17:10;99244.47;;;-2.16;100.00
47761;BME280;33524;55.434;38.520;2023-02-14T06:19:38;99246.44;;;-2.01;100.00
47761;BME280;33524;55.434;38.520;2023-02-14T06:22:06;99221.78;;;-2.07;100.00
47761;BME280;33524;55.434;38.520;2023-02-14T06:24:34;99251.78;;;-1.84;100.00
47761;BME280;33524;55.434;38.520;2023-02-14T06:27:02;99252.56;;;-1.81;100.00
47761;BME280;33524;55.434;38.520;2023-02-14T06:29:30;99254.13;;;-1.77;100.00
47761;BME280;33524;55.434;38.520;2023-02-14T06:31:58;99250.28;;;-1.67;100.00
47761;BME280;33524;55.434;38.520;2023-02-14T06:34:33;99256.47;;;-1.51;100.00
47761;BME280;33524;55.434;38.520;2023-02-14T06:37:01;99262.03;;;-1.39;100.00
47761;BME280;33524;55.434;38.520;2023-02-14T06:39:29;99260.22;;;-1.37;100.00
47761;BME280;33524;55.434;38.520;2023-02-14T06:41:57;99249.59;;;-1.30;100.00
47761;BME280;33524;55.434;38.520;2023-02-14T06:44:25;99263.47;;;-1.32;100.00
47761;BME280;33524;55.434;38.520;2023-02-14T06:46:53;99275.19;;;-1.25;100.00
47761;BME280;33524;55.434;38.520;2023-02-14T06:49:21;99267.44;;;-1.25;100.00
47761;BME280;33524;55.434;38.520;2023-02-14T06:51:49;99276.31;;;-1.12;100.00
47761;BME280;33524;55.434;38.520;2023-02-14T06:54:17;99276.28;;;-1.10;100.00
47761;BME280;33524;55.434;38.520;2023-02-14T06:56:48;99279.00;;;-1.13;100.00
47761;BME280;33524;55.434;38.520;2023-02-14T06:59:16;99279.31;;;-1.00;100.00
47761;BME280;33524;55.434;38.520;2023-02-14T07:01:44;99290.41;;;-0.98;100.00
47761;BME280;33524;55.434;38.520;2023-02-14T07:04:12;99284.56;;;-0.83;100.00
47761;BME280;33524;55.434;38.520;2023-02-14T07:06:41;99296.31;;;-0.76;100.00
47761;BME280;33524;55.434;38.520;2023-02-14T07:09:08;99297.03;;;-0.72;100.00
47761;BME280;33524;55.434;38.520;2023-02-14T07:11:36;99299.81;;;-0.58;100.00
47761;BME280;33524;55.434;38.520;2023-02-14T07:14:04;99298.81;;;-0.35;100.00
47761;BME280;33524;55.434;38.520;2023-02-14T07:16:32;99299.75;;;-0.56;100.00
47761;BME280;33524;55.434;38.520;2023-02-14T07:19:03;99297.34;;;-0.41;100.00
47761;BME280;33524;55.434;38.520;2023-02-14T07:21:31;99304.81;;;-0.34;100.00
47761;BME280;33524;55.434;38.520;2023-02-14T07:23:59;99300.41;;;-0.32;100.00
47761;BME280;33524;55.434;38.520;2023-02-14T07:26:27;99315.50;;;-0.23;100.00
47761;BME280;33524;55.434;38.520;2023-02-14T07:28:55;99311.62;;;-0.33;100.00
47761;BME280;33524;55.434;38.520;2023-02-14T07:31:23;99313.13;;;-0.28;100.00
47761;BME280;33524;55.434;38.520;2023-02-14T07:33:51;99322.63;;;-0.09;100.00
47761;BME280;33524;55.434;38.520;2023-02-14T07:36:20;99318.44;;;-0.12;100.00
47761;BME280;33524;55.434;38.520;2023-02-14T07:38:47;99323.44;;;-0.28;100.00
47761;BME280;33524;55.434;38.520;2023-02-14T07:41:15;99331.09;;;-0.25;100.00
47761;BME280;33524;55.434;38.520;2023-02-14T07:43:43;99304.88;;;-0.36;100.00
47761;BME280;33524;55.434;38.520;2023-02-14T07:46:11;99337.47;;;0.24;98.93
47761;BME280;33524;55.434;38.520;2023-02-14T07:48:39;99334.25;;;0.18;97.53
47761;BME280;33524;55.434;38.520;2023-02-14T07:51:09;99337.41;;;0.06;96.87
47761;BME280;33524;55.434;38.520;2023-02-14T07:53:37;99324.31;;;-0.08;97.48
47761;BME280;33524;55.434;38.520;2023-02-14T07:56:05;99335.19;;;-0.02;97.39
47761;BME280;33524;55.434;38.520;2023-02-14T07:58:33;99347.19;;;0.18;97.15
47761;BME280;33524;55.434;38.520;2023-02-14T08:01:01;99348.25;;;-0.05;97.13
47761;BME280;33524;55.434;38.520;2023-02-14T08:03:29;99353.69;;;-0.11;97.50
47761;BME280;33524;55.434;38.520;2023-02-14T08:05:57;99355.72;;;0.20;97.00
47761;BME280;33524;55.434;38.520;2023-02-14T08:08:26;99356.97;;;0.31;96.20
47761;BME280;33524;55.434;38.520;2023-02-14T08:10:54;99353.87;;;0.42;95.52
47761;BME280;33524;55.434;38.520;2023-02-14T08:13:23;99335.75;;;0.05;95.87
47761;BME280;33524;55.434;38.520;2023-02-14T08:15:51;99357.91;;;-0.08;96.59
47761;BME280;33524;55.434;38.520;2023-02-14T08:18:36;99360.22;;;-0.02;97.36
47761;BME280;33524;55.434;38.520;2023-02-14T08:21:06;99359.78;;;0.07;97.57
47761;BME280;33524;55.434;38.520;2023-02-14T08:23:36;99363.13;;;-0.10;97.89
47761;BME280;33524;55.434;38.520;2023-02-14T08:26:04;99361.37;;;0.29;97.72
47761;BME280;33524;55.434;38.520;2023-02-14T08:28:32;99364.72;;;0.50;96.52
47761;BME280;33524;55.434;38.520;2023-02-14T08:31:03;99360.03;;;0.39;95.21
47761;BME280;33524;55.434;38.520;2023-02-14T08:33:31;99369.00;;;0.32;96.10
47761;BME280;33524;55.434;38.520;2023-02-14T08:35:59;99371.91;;;0.43;95.58
47761;BME280;33524;55.434;38.520;2023-02-14T08:38:28;99373.19;;;0.34;96.20
47761;BME280;33524;55.434;38.520;2023-02-14T08:41:00;99379.66;;;0.43;95.41
47761;BME280;33524;55.434;38.520;2023-02-14T08:43:33;99376.59;;;0.54;95.30
47761;BME280;33524;55.434;38.520;2023-02-14T08:46:01;99381.53;;;0.58;95.10
47761;BME280;33524;55.434;38.520;2023-02-14T08:48:29;99387.66;;;0.75;93.20
47761;BME280;33524;55.434;38.520;2023-02-14T08:50:57;99383.37;;;0.56;93.25
47761;BME280;33524;55.434;38.520;2023-02-14T08:53:26;99380.41;;;0.64;93.28
47761;BME280;33524;55.434;38.520;2023-02-14T08:55:54;99375.56;;;0.93;91.65
47761;BME280;33524;55.434;38.520;2023-02-14T08:58:22;99379.12;;;0.90;91.38
47761;BME280;33524;55.434;38.520;2023-02-14T09:00:49;99395.44;;;0.92;90.53
47761;BME280;33524;55.434;38.520;2023-02-14T09:03:17;99381.00;;;1.06;90.37
47761;BME280;33524;55.434;38.520;2023-02-14T09:05:46;99391.94;;;1.11;89.55
47761;BME280;33524;55.434;38.520;2023-02-14T09:08:13;99384.41;;;1.06;88.82
47761;BME280;33524;55.434;38.520;2023-02-14T09:10:41;99382.94;;;1.00;88.65
47761;BME280;33524;55.434;38.520;2023-02-14T09:13:09;99396.03;;;0.80;90.37
47761;BME280;33524;55.434;38.520;2023-02-14T09:15:37;99408.84;;;0.28;95.10
47761;BME280;33524;55.434;38.520;2023-02-14T09:18:05;99407.72;;;0.14;98.57
47761;BME280;33524;55.434;38.520;2023-02-14T09:20:33;99399.75;;;0.00;99.58
47761;BME280;33524;55.434;38.520;2023-02-14T09:23:01;99405.59;;;0.04;99.95
47761;BME280;33524;55.434;38.520;2023-02-14T09:25:29;99411.44;;;0.28;99.80
47761;BME280;33524;55.434;38.520;2023-02-14T09:27:57;99413.75;;;0.15;98.58
47761;BME280;33524;55.434;38.520;2023-02-14T09:30:27;99421.94;;;0.61;97.10
47761;BME280;33524;55.434;38.520;2023-02-14T09:32:55;99441.09;;;0.76;93.06
47761;BME280;33524;55.434;38.520;2023-02-14T09:35:23;99459.84;;;0.43;95.79
47761;BME280;33524;55.434;38.520;2023-02-14T09:37:51;99442.53;;;-0.53;97.29
47761;BME280;33524;55.434;38.520;2023-02-14T09:40:19;99444.19;;;-0.93;99.85
47761;BME280;33524;55.434;38.520;2023-02-14T09:43:03;99471.78;;;-1.17;100.00
47761;BME280;33524;55.434;38.520;2023-02-14T09:45:37;99444.97;;;-1.35;100.00
47761;BME280;33524;55.434;38.520;2023-02-14T09:48:13;99467.94;;;-1.29;100.00
47761;BME280;33524;55.434;38.520;2023-02-14T09:50:48;99451.09;;;-1.37;100.00
47761;BME280;33524;55.434;38.520;2023-02-14T09:53:32;99464.66;;;-1.32;100.00
47761;BME280;33524;55.434;38.520;2023-02-14T09:56:18;99459.81;;;-0.97;100.00
47761;BME280;33524;55.434;38.520;2023-02-14T09:59:11;99472.63;;;-0.94;100.00
47761;BME280;33524;55.434;38.520;2023-02-14T10:01:49;99479.62;;;-0.76;100.00
47761;BME280;33524;55.434;38.520;2023-02-14T10:06:57;99469.59;;;-0.84;100.00
47761;BME280;33524;55.434;38.520;2023-02-14T10:09:42;99462.78;;;-1.07;100.00
47761;BME280;33524;55.434;38.520;2023-02-14T10:15:23;99473.16;;;-1.08;100.00
47761;BME280;33524;55.434;38.520;2023-02-14T10:20:43;99486.66;;;-1.02;100.00
47761;BME280;33524;55.434;38.520;2023-02-14T10:23:29;99479.53;;;-0.32;100.00
47761;BME280;33524;55.434;38.520;2023-02-14T10:26:03;99476.59;;;-0.04;97.37
47761;BME280;33524;55.434;38.520;2023-02-14T10:28:42;99481.25;;;0.28;95.93
47761;BME280;33524;55.434;38.520;2023-02-14T10:31:37;99472.31;;;0.54;94.97
47761;BME280;33524;55.434;38.520;2023-02-14T10:34:14;99484.06;;;0.42;93.51
47761;BME280;33524;55.434;38.520;2023-02-14T10:36:57;99486.97;;;0.34;94.39
47761;BME280;33524;55.434;38.520;2023-02-14T10:45:15;99502.44;;;0.74;91.66
47761;BME280;33524;55.434;38.520;2023-02-14T10:47:59;99517.84;;;1.13;90.08
47761;BME280;33524;55.434;38.520;2023-02-14T10:53:16;99519.94;;;1.24;91.24
47761;BME280;33524;55.434;38.520;2023-02-14T10:56:04;99523.16;;;1.64;88.92
47761;BME280;33524;55.434;38.520;2023-02-14T10:58:35;99523.72;;;1.17;88.99
47761;BME280;33524;55.434;38.520;2023-02-14T11:01:17;99514.63;;;0.53;92.09
47761;BME280;33524;55.434;38.520;2023-02-14T11:03:54;99533.72;;;0.69;92.49
47761;BME280;33524;55.434;38.520;2023-02-14T11:06:25;99526.38;;;0.79;93.39
47761;BME280;33524;55.434;38.520;2023-02-14T11:08:56;99540.59;;;1.07;91.48
47761;BME280;33524;55.434;38.520;2023-02-14T11:11:50;99531.91;;;2.14;90.02
47761;BME280;33524;55.434;38.520;2023-02-14T11:14:28;99531.84;;;1.63;86.71
47761;BME280;33524;55.434;38.520;2023-02-14T11:16:59;99540.62;;;1.60;87.18
47761;BME280;33524;55.434;38.520;2023-02-14T11:19:57;99532.22;;;1.38;86.82
47761;BME280;33524;55.434;38.520;2023-02-14T11:22:29;99539.50;;;1.30;86.12
47761;BME280;33524;55.434;38.520;2023-02-14T11:25:06;99548.53;;;1.04;86.23
47761;BME280;33524;55.434;38.520;2023-02-14T11:27:35;99551.53;;;0.94;86.94
47761;BME280;33524;55.434;38.520;2023-02-14T11:30:32;99537.06;;;0.71;86.79
47761;BME280;33524;55.434;38.520;2023-02-14T11:33:01;99557.75;;;0.33;87.78
47761;BME280;33524;55.434;38.520;2023-02-14T11:35:32;99567.44;;;0.08;89.51
47761;BME280;33524;55.434;38.520;2023-02-14T11:38:05;99567.37;;;0.09;90.56
47761;BME280;33524;55.434;38.520;2023-02-14T11:40:35;99570.59;;;0.35;89.46
47761;BME280;33524;55.434;38.520;2023-02-14T11:45:42;99565.28;;;0.38;87.72
47761;BME280;33524;55.434;38.520;2023-02-14T11:48:27;99568.47;;;0.24;86.91
47761;BME280;33524;55.434;38.520;2023-02-14T11:51:09;99556.38;;;0.25;86.72
47761;BME280;33524;55.434;38.520;2023-02-14T11:53:47;99576.78;;;0.31;86.56
47761;BME280;33524;55.434;38.520;2023-02-14T11:56:18;99559.06;;;0.03;86.42
47761;BME280;33524;55.434;38.520;2023-02-14T11:58:56;99582.94;;;-0.13;87.78
47761;BME280;33524;55.434;38.520;2023-02-14T12:01:31;99586.84;;;-0.03;87.96
47761;BME280;33524;55.434;38.520;2023-02-14T12:04:33;99587.09;;;-0.09;86.71
47761;BME280;33524;55.434;38.520;2023-02-14T12:07:35;99595.31;;;0.01;86.99
47761;BME280;33524;55.434;38.520;2023-02-14T12:12:36;99607.31;;;-0.18;88.15
47761;BME280;33524;55.434;38.520;2023-02-14T12:15:25;99609.44;;;-0.28;88.86
47761;BME280;33524;55.434;38.520;2023-02-14T12:18:15;99614.78;;;-0.33;88.86
47761;BME280;33524;55.434;38.520;2023-02-14T12:26:24;99621.13;;;-0.19;87.82
47761;BME280;33524;55.434;38.520;2023-02-14T12:28:59;99627.34;;;-0.24;88.02
47761;BME280;33524;55.434;38.520;2023-02-14T12:31:47;99633.41;;;-0.25;88.30
47761;BME280;33524;55.434;38.520;2023-02-14T12:34:16;99643.84;;;-0.06;87.26
47761;BME280;33524;55.434;38.520;2023-02-14T12:37:10;99643.69;;;-0.03;86.93
47761;BME280;33524;55.434;38.520;2023-02-14T12:39:47;99654.47;;;0.29;86.24
47761;BME280;33524;55.434;38.520;2023-02-14T12:42:30;99650.84;;;0.33;85.84
47761;BME280;33524;55.434;38.520;2023-02-14T12:45:13;99661.50;;;0.05;86.30
47761;BME280;33524;55.434;38.520;2023-02-14T13:04:28;99684.47;;;0.33;85.07
47761;BME280;33524;55.434;38.520;2023-02-14T13:12:22;99698.41;;;-0.35;87.10
47761;BME280;33524;55.434;38.520;2023-02-14T13:15:23;99707.34;;;-0.66;88.79
47761;BME280;33524;55.434;38.520;2023-02-14T13:20:53;99703.00;;;-1.13;92.09
47761;BME280;33524;55.434;38.520;2023-02-14T13:23:30;99716.22;;;-1.22;93.08
47761;BME280;33524;55.434;38.520;2023-02-14T13:26:18;99714.97;;;-1.35;93.82
47761;BME280;33524;55.434;38.520;2023-02-14T13:28:56;99719.34;;;-1.37;94.78
47761;BME280;33524;55.434;38.520;2023-02-14T13:31:25;99727.00;;;-1.34;95.06
47761;BME280;33524;55.434;38.520;2023-02-14T13:34:02;99724.88;;;-1.23;94.93
47761;BME280;33524;55.434;38.520;2023-02-14T13:36:33;99730.19;;;-1.03;94.31
47761;BME280;33524;55.434;38.520;2023-02-14T13:39:04;99735.72;;;-0.90;93.71
47761;BME280;33524;55.434;38.520;2023-02-14T13:41:32;99739.22;;;-0.91;93.60
47761;BME280;33524;55.434;38.520;2023-02-14T13:44:01;99746.84;;;-0.88;93.67
47761;BME280;33524;55.434;38.520;2023-02-14T13:46:49;99743.59;;;-0.93;93.71
47761;BME280;33524;55.434;38.520;2023-02-14T13:49:27;99764.13;;;-0.90;95.11
47761;BME280;33524;55.434;38.520;2023-02-14T13:52:00;99780.16;;;-1.05;97.96
47761;BME280;33524;55.434;38.520;2023-02-14T13:54:45;99774.47;;;-1.15;100.00
47761;BME280;33524;55.434;38.520;2023-02-14T13:57:40;99780.78;;;-1.24;100.00
47761;BME280;33524;55.434;38.520;2023-02-14T14:02:55;99794.63;;;-1.26;100.00
47761;BME280;33524;55.434;38.520;2023-02-14T14:08:36;99795.41;;;-1.24;99.07
47761;BME280;33524;55.434;38.520;2023-02-14T14:21:40;99820.66;;;-1.32;98.69
47761;BME280;33524;55.434;38.520;2023-02-14T14:24:23;99828.38;;;-1.32;98.48
47761;BME280;33524;55.434;38.520;2023-02-14T14:27:15;99832.78;;;-1.36;98.62
47761;BME280;33524;55.434;38.520;2023-02-14T14:30:06;99834.59;;;-1.38;98.81
47761;BME280;33524;55.434;38.520;2023-02-14T14:32:41;99838.03;;;-1.39;98.89
47761;BME280;33524;55.434;38.520;2023-02-14T14:37:59;99854.47;;;-1.42;99.08
47761;BME280;33524;55.434;38.520;2023-02-14T14:40:31;99857.97;;;-1.43;99.19
47761;BME280;33524;55.434;38.520;2023-02-14T14:43:15;99857.97;;;-1.43;99.31
47761;BME280;33524;55.434;38.520;2023-02-14T14:45:46;99863.00;;;-1.39;99.14
47761;BME280;33524;55.434;38.520;2023-02-14T14:49:03;99864.78;;;-1.42;99.33
47761;BME280;33524;55.434;38.520;2023-02-14T14:51:33;99872.53;;;-1.42;99.47
47761;BME280;33524;55.434;38.520;2023-02-14T14:54:12;99873.31;;;-1.39;99.31
47761;BME280;33524;55.434;38.520;2023-02-14T14:56:57;99886.13;;;-1.36;99.43
47761;BME280;33524;55.434;38.520;2023-02-14T14:59:30;99893.87;;;-1.36;99.23
47761;BME280;33524;55.434;38.520;2023-02-14T15:02:25;99895.66;;;-1.38;99.17
47761;BME280;33524;55.434;38.520;2023-02-14T15:04:56;99908.81;;;-1.48;99.57
47761;BME280;33524;55.434;38.520;2023-02-14T15:07:33;99907.09;;;-1.47;99.61